KBFD/BFD METAR and TAF weather

Enter ICAO airport designator
Station Type Date Time Source
KBFD METAR 2018/04/21 10:53 UTC NOAA

KBFD 211053Z AUTO 00000KT 10SM CLR M04/M06 A3040 RMK AO2 SLP313 T10391061


Station Type Date Time Source
KBFD Decoded METAR 2018/04/21 10:53 UTC NOAA

BRADFORD REGIONAL AIRPORT, PA, United States (KBFD) 41-48N 078-38W 647M
Apr 21, 2018 - 06:53 AM EDT / 2018.04.21 1053 UTC
Wind: Calm:0
Visibility: 10 mile(s):0
Sky conditions: clear
Temperature: 25.0 F (-3.9 C)
Dew Point: 21.0 F (-6.1 C)
Relative Humidity: 84%
Pressure (altimeter): 30.4 in. Hg (1029 hPa)
ob: KBFD 211053Z AUTO 00000KT 10SM CLR M04/M06 A3040 RMK AO2 SLP313 T10391061
cycle: 11

Station Type Date Time Source
KBFD TAF 2018/04/21 12:36 UTC NOAA

TAF KBFD 211133Z 2112/2212 VRB03KT P6SM SKC
FM211300 33007KT P6SM BKN250
FM212300 VRB04KT P6SM BKN250


Example: see airport list